Audubon, Iowa
Current Conditions -  °F | °C
As of 1:15 AM on Saturday 20 Dec 2014 (Local Time) from KADU Reporting Station
Haze Haze  
Wind Chill: 20°   Ceiling: 700
Heat Index: 28°   Visibility: 5mi
Dew Point: 25°   Wind: 8mph
Humidity: 86%   Direction: 170°S
Pressure: 30.15"   Gusts: NA
Location:  41.72°N, 94.93°W
Report Text: KADU 200715Z AUTO 17007KT 5SM HZ BKN007 M02/M04 A3015 RMK AO2
Loading
Personal Weather Stations






























Interactive Weather Map New forecast layout! Learn more

10-Day Weather Forecast

Advertisements
Track Severe Weather on mobile